• Join FlightAware (Why Join?)
  • Login
  • US Flag GB Flag 
08:30 EST


 

Airport Tracker/Info


-or-


 

Live Flight TrackerFlight Track Log ✈ UAL4295 ✈ 24-Apr-2013 ✈ KEWR - KMCI

Flight Track Log - Related Links

Times and Time Zones

All times are in EDT time to prevent confusion due to time zone crossing. See the UAL4295 flight status page for this flight to view local times or setup timezone preferences in your user account.

Time Position Orientation Groundspeed Altitude Reporting Facility
EDT Latitude Longitude Course Direction KTS MPH feet Rate Location/Type
20:16 40.6667 -74.1833 207° Southwest 171 197 1,200  Level New York TRACON
20:17 40.6167 -74.2167 207° Southwest 216 249 3,100 2,520 Climbing New York TRACON
20:18 40.6500 -74.3000 298° West 234 269 6,000 2,640 Climbing New York TRACON
20:19 40.6833 -74.3833 298° West 245 282 8,400 2,400 Climbing New York TRACON
20:20 40.7000 -74.4667 285° West 257 296 10,800 1,740 Climbing New York TRACON
20:22 40.7739 -74.6211 302° West 302 348 13,500 1,260 Climbing New York Center
20:23 40.8181 -74.7333 298° West 314 361 14,600 1,260 Climbing New York Center
20:24 40.8564 -74.8342 297° West 333 383 16,000 1,380 Climbing New York Center
20:25 40.8833 -74.9539 287° West 340 391 17,400 1,500 Climbing New York Center
20:26 40.8447 -75.0475 241° Southwest 299 344 19,000 1,500 Climbing New York Center
20:27 40.7994 -75.1433 238° Southwest 293 337 20,500 1,500 Climbing New York Center
20:28 40.7825 -75.2600 259° West 309 356 22,100 1,380 Climbing New York Center
20:29 40.7633 -75.3794 258° West 326 375 23,400 1,260 Climbing New York Center
20:30 40.7278 -75.4892 247° West 326 375 24,600 1,260 Climbing New York Center
20:31 40.6881 -75.5961 244° Southwest 332 382 26,000 1,440 Climbing New York Center
20:32 40.6481 -75.7028 244° Southwest 332 382 27,500 1,500 Climbing New York Center
20:33 40.6106 -75.8039 244° Southwest 322 371 29,000 1,260 Climbing New York Center
20:34 40.5708 -75.9019 242° Southwest 309 356 30,100 1,080 Climbing New York Center
20:35 40.5242 -76.0158 242° Southwest 314 361 31,200 1,020 Climbing New York Center
20:36 40.4839 -76.1247 244° Southwest 319 367 32,200 900 Climbing New York Center
20:37 40.4439 -76.2281 243° Southwest 319 367 33,100 840 Climbing New York Center
20:38 40.4056 -76.3314 244° Southwest 319 367 34,000 420 Climbing New York Center
20:39 40.3631 -76.4397 243° Southwest 319 367 34,000  Level New York Center
20:40 40.3281 -76.5567 249° West 334 384 34,000  Level New York Center
20:41 40.2992 -76.6794 253° West 347 399 34,000  Level New York Center
20:42 40.2681 -76.7992 251° West 352 405 34,000  Level New York Center
20:43 40.2392 -76.9136 252° West 352 405 34,000  Level New York Center
20:44 40.2100 -77.0308 252° West 347 399 34,000  Level New York Center
20:45 40.1892 -77.1483 257° West 342 394 34,000  Level New York Center
20:46 40.1844 -77.2731 267° West 342 394 34,000  Level New York Center
20:47 40.1828 -77.4550 269° West 332 382 34,000  Level Cleveland Center
20:48 40.1797 -77.5747 268° West 332 382 34,000  Level Cleveland Center
20:49 40.1744 -77.7000 267° West 332 382 34,000  Level Cleveland Center
20:50 40.1711 -77.8169 268° West 332 382 34,000  Level Cleveland Center
20:51 40.1636 -77.9369 265° West 332 382 34,000  Level Cleveland Center
20:52 40.1664 -78.0564 272° West 332 382 34,000  Level Cleveland Center
20:53 40.1667 -78.1731 270° West 327 376 34,000  Level Cleveland Center
20:54 40.1714 -78.2925 273° West 327 376 34,000  Level Cleveland Center
20:55 40.1714 -78.4094 270° West 327 376 34,000  Level Cleveland Center
20:56 40.1758 -78.5261 273° West 327 376 34,000  Level Cleveland Center
20:57 40.1778 -78.6403 271° West 327 376 34,000  Level Cleveland Center
20:58 40.1800 -78.7678 271° West 327 376 34,000  Level Cleveland Center
20:59 40.1817 -78.8847 271° West 327 376 34,000  Level Cleveland Center
21:00 40.1833 -79.0014 271° West 327 376 34,000  Level Cleveland Center
21:01 40.1847 -79.1128 271° West 327 376 34,000  Level Cleveland Center
21:02 40.1864 -79.2269 271° West 327 376 34,000  Level Cleveland Center
21:03 40.1894 -79.3275 272° West 327 376 34,000  Level Cleveland Center
21:04 40.1908 -79.4417 271° West 321 369 34,000  Level Cleveland Center
21:05 40.1917 -79.5531 271° West 316 364 34,000  Level Cleveland Center
21:06 40.1947 -79.6617 272° West 310 357 34,000  Level Cleveland Center
21:07 40.1936 -79.7706 269° West 310 357 34,000  Level Cleveland Center
21:08 40.1942 -79.8792 270° West 310 357 34,000  Level Cleveland Center
21:09 40.1947 -79.9850 270° West 305 351 34,000  Level Cleveland Center
21:10 40.1911 -80.1019 268° West 305 351 34,000  Level Cleveland Center
21:11 40.1936 -80.2081 272° West 299 344 34,000  Level Cleveland Center
21:12 40.1939 -80.3139 270° West 294 338 34,000  Level Cleveland Center
21:13 40.1983 -80.4144 273° West 288 331 34,000  Level Cleveland Center
21:14 40.1983 -80.5178 270° West 288 331 34,000  Level Cleveland Center
21:15 40.1986 -80.6239 270° West 288 331 34,000  Level Cleveland Center
21:16 40.1964 -80.7244 268° West 288 331 34,000  Level Cleveland Center
21:19 40.1931 -80.9742 269° West 281 323 34,000  Level Indianapolis Center
21:20 40.1925 -81.0778 270° West 283 326 34,000  Level Indianapolis Center
21:21 40.1925 -81.1803 270° West 279 321 34,000  Level Indianapolis Center
21:22 40.1917 -81.2822 269° West 279 321 34,000  Level Indianapolis Center
21:23 40.1919 -81.3839 270° West 276 318 34,000  Level Indianapolis Center
21:24 40.1917 -81.4872 270° West 279 321 34,000  Level Indianapolis Center
21:25 40.1897 -81.5894 269° West 279 321 34,000  Level Indianapolis Center
21:26 40.1886 -81.7067 269° West 274 315 34,000  Level Indianapolis Center
21:27 40.1875 -81.8017 269° West 275 316 34,000  Level Indianapolis Center
21:28 40.1869 -81.9042 270° West 277 319 34,000  Level Indianapolis Center
21:29 40.1856 -82.0069 269° West 281 323 34,000  Level Indianapolis Center
21:30 40.1856 -82.1092 270° West 279 321 34,000  Level Indianapolis Center
21:31 40.1836 -82.2119 269° West 280 322 34,000  Level Indianapolis Center
21:32 40.1819 -82.3150 269° West 282 325 34,000  Level Indianapolis Center
21:33 40.1803 -82.4164 269° West 278 320 34,000  Level Indianapolis Center
21:34 40.1789 -82.5194 269° West 281 323 34,000  Level Indianapolis Center
21:35 40.1767 -82.6228 268° West 281 323 34,000  Level Indianapolis Center
21:36 40.1753 -82.7428 269° West 282 325 34,000  Level Indianapolis Center
21:37 40.1731 -82.8458 268° West 282 325 34,000  Level Indianapolis Center
21:38 40.1714 -82.9489 269° West 282 325 34,000  Level Indianapolis Center
21:39 40.1683 -83.0522 268° West 283 326 34,000  Level Indianapolis Center
21:40 40.1667 -83.1558 269° West 284 327 34,000  Level Indianapolis Center
21:41 40.1642 -83.2586 268° West 284 327 34,000  Level Indianapolis Center
21:42 40.1617 -83.3617 268° West 282 325 34,000  Level Indianapolis Center
21:43 40.1597 -83.4647 269° West 284 327 34,000  Level Indianapolis Center
21:44 40.1572 -83.5683 268° West 285 328 34,000  Level Indianapolis Center
21:45 40.1536 -83.6708 267° West 283 326 34,000  Level Indianapolis Center
21:46 40.1511 -83.7911 268° West 283 326 34,000  Level Indianapolis Center
21:47 40.1475 -83.8961 267° West 289 333 34,000  Level Indianapolis Center
21:48 40.1447 -83.9997 268° West 286 329 34,000  Level Indianapolis Center
21:49 40.1422 -84.1053 268° West 287 330 34,000  Level Indianapolis Center
21:50 40.1386 -84.2106 267° West 286 329 34,000  Level Indianapolis Center
21:51 40.1356 -84.3169 268° West 288 331 34,000  Level Indianapolis Center
21:52 40.1331 -84.4242 268° West 292 336 34,000  Level Indianapolis Center
21:53 40.1292 -84.5311 267° West 294 338 34,000  Level Indianapolis Center
21:54 40.1239 -84.6381 266° West 292 336 34,000  Level Indianapolis Center
21:55 40.1194 -84.7458 267° West 295 339 34,000  Level Indianapolis Center
21:56 40.1153 -84.8522 267° West 293 337 34,000  Level Indianapolis Center
21:58 40.1125 -84.9625 268° West 291 335 34,000  Level Indianapolis Center
21:59 40.1078 -85.0683 267° West 291 335 34,000  Level Indianapolis Center
22:00 40.1042 -85.1747 267° West 292 336 34,000  Level Indianapolis Center
22:01 40.0994 -85.2975 267° West 289 333 34,000  Level Indianapolis Center
22:01 40.0964 -85.3503 266° West 290 334 34,000  Level Indianapolis Center
22:02 40.0922 -85.4575 267° West 293 337 34,000  Level Indianapolis Center
22:03 40.0878 -85.5639 267° West 291 335 34,000  Level Indianapolis Center
22:04 40.0833 -85.6708 267° West 294 338 34,000  Level Indianapolis Center
22:05 40.0778 -85.7961 267° West 295 339 34,000  Level Indianapolis Center
22:06 40.0731 -85.9036 267° West 296 341 34,000  Level Indianapolis Center
22:07 40.0681 -86.0114 267° West 297 342 34,000  Level Indianapolis Center
22:08 40.0628 -86.1181 266° West 295 339 34,000  Level Indianapolis Center
22:09 40.0592 -86.2081 267° West 299 344 34,000  Level Chicago Center
22:10 40.0536 -86.3342 267° West 299 344 34,000  Level Chicago Center
22:11 40.0469 -86.4419 265° West 299 344 34,000  Level Indianapolis Center
22:12 40.0419 -86.5514 267° West 302 348 34,000  Level Indianapolis Center
22:13 40.0364 -86.6608 266° West 302 348 34,000  Level Indianapolis Center
22:14 40.0308 -86.7697 266° West 302 348 34,000  Level Indianapolis Center
22:15 40.0239 -86.8975 266° West 300 345 34,000  Level Indianapolis Center
22:16 40.0178 -87.0072 266° West 302 348 34,000  Level Indianapolis Center
22:17 40.0108 -87.1164 265° West 301 346 34,000  Level Indianapolis Center
22:19 40.0039 -87.2456 266° West 305 351 34,000  Level Indianapolis Center
22:20 39.9978 -87.3561 266° West 304 350 34,000  Level Indianapolis Center
22:21 39.9908 -87.4669 265° West 305 351 34,000  Level Indianapolis Center
22:22 39.9853 -87.5792 266° West 308 354 34,000  Level Indianapolis Center
22:23 39.9781 -87.6908 265° West 308 354 34,000  Level Indianapolis Center
22:24 39.9708 -87.8025 265° West 307 353 34,000  Level Indianapolis Center
22:25 39.9653 -87.9156 266° West 309 356 34,000  Level Chicago Center
22:26 39.9586 -88.0275 266° West 309 356 34,000  Level Chicago Center
22:27 39.9514 -88.1400 265° West 309 356 34,000  Level Chicago Center
22:29 39.9353 -88.3597 265° West 311 358 34,000  Level Kansas City Center
22:30 39.9269 -88.4711 264° West 309 356 34,000  Level Kansas City Center
22:31 39.9208 -88.5853 266° West 313 360 34,000  Level Kansas City Center
22:32 39.9125 -88.6986 265° West 313 360 34,000  Level Kansas City Center
22:33 39.9047 -88.8119 265° West 314 361 34,000  Level Kansas City Center
22:34 39.8953 -88.9258 264° West 315 362 34,000  Level Kansas City Center
22:35 39.8872 -89.0408 265° West 317 365 34,000  Level Kansas City Center
22:36 39.8800 -89.1556 265° West 318 366 34,000  Level Kansas City Center
22:37 39.8706 -89.2714 264° West 320 368 34,000  Level Kansas City Center
22:38 39.8622 -89.3864 265° West 319 367 34,000  Level Kansas City Center
22:39 39.8533 -89.5003 264° West 318 366 34,000  Level Kansas City Center
22:40 39.8442 -89.6147 264° West 317 365 34,000  Level Kansas City Center
22:41 39.8394 -89.7542 268° West 319 367 34,000  Level Kansas City Center
22:42 39.8411 -89.8725 271° West 323 372 34,000  Level Kansas City Center
22:43 39.8431 -89.9903 271° West 325 374 34,000  Level Kansas City Center
22:44 39.8442 -90.1094 271° West 327 376 34,000  Level Kansas City Center
22:45 39.8450 -90.2281 271° West 328 377 34,000  Level Kansas City Center
22:46 39.8458 -90.3486 271° West 330 380 34,000  Level Kansas City Center
22:47 39.8464 -90.4697 270° West 333 383 34,000  Level Kansas City Center
22:48 39.8472 -90.5922 271° West 335 386 34,000  Level Kansas City Center
22:49 39.8472 -90.7131 270° West 335 386 34,000  Level Kansas City Center
22:50 39.8475 -90.8342 270° West 335 386 34,000  Level Kansas City Center
22:51 39.8486 -90.9717 271° West 337 388 34,000  Level Kansas City Center
22:52 39.8483 -91.0939 270° West 339 390 34,000  Level Kansas City Center
22:53 39.8483 -91.2153 270° West 340 391 34,000  Level Kansas City Center
22:54 39.8442 -91.3381 268° West 341 392 34,000  Level Kansas City Center
22:55 39.8339 -91.4606 264° West 342 394 34,000  Level Kansas City Center
22:56 39.8253 -91.5833 265° West 343 395 34,000  Level Kansas City Center
22:57 39.8156 -91.7050 264° West 340 391 34,000  Level Kansas City Center
22:58 39.8069 -91.8261 265° West 340 391 34,000  Level Kansas City Center
22:59 39.7969 -91.9694 265° West 337 388 34,000 -480 Level Kansas City Center
23:00 39.7869 -92.0919 264° West 340 391 33,100 -1,020 Descending Kansas City Center
23:01 39.7769 -92.2161 264° West 344 396 32,000 -1,080 Descending Kansas City Center
23:02 39.7667 -92.3406 264° West 346 398 31,000 -1,020 Descending Kansas City Center
23:03 39.7569 -92.4653 264° West 348 400 29,900 -1,080 Descending Kansas City Center
23:04 39.7461 -92.5897 264° West 347 399 28,800 -1,080 Descending Kansas City Center
23:05 39.7350 -92.7144 263° West 349 402 27,800 -1,140 Descending Kansas City Center
23:06 39.7250 -92.8419 264° West 352 405 26,600 -1,380 Descending Kansas City Center
23:07 39.7125 -92.9686 263° West 355 409 25,100 -1,440 Descending Kansas City Center
23:08 39.7019 -93.1000 264° West 363 418 23,700 -1,440 Descending Kansas City Center
23:09 39.6897 -93.2314 263° West 368 423 22,200 -1,800 Descending Kansas City Center
23:10 39.6769 -93.3819 264° West 356 410 20,100 -2,040 Descending Kansas City Center
23:12 39.6647 -93.5022 263° West 348 400 18,000 -1,980 Descending Kansas City Center
23:13 39.6558 -93.6122 264° West 312 359 16,100 -1,980 Descending Kansas City Center
23:14 39.6458 -93.7169 263° West 296 341 14,100 -1,860 Descending Kansas City Center
23:15 39.6358 -93.8156 263° West 287 330 12,300 -1,500 Descending Kansas City Center
23:16 39.6150 -93.9208 256° West 269 310 11,100 -1,140 Descending Kansas City Center
23:17 39.5989 -94.0094 257° West 265 305 10,100 -660 Descending Kansas City Center
23:18 39.5822 -94.0986 256° West 264 304 9,800 -720 Descending Kansas City Center
23:19 39.5644 -94.1906 256° West 236 272 8,700 -1,080 Descending Kansas City Center
23:20 39.5497 -94.2703 257° West 235 270 7,600 -1,020 Descending Kansas City Center
23:21 39.5353 -94.3447 256° West 225 259 6,700 -840 Descending Kansas City Center
23:22 39.5203 -94.4294 257° West 217 250 6,000 -600 Descending Kansas City Center
23:23 39.5050 -94.5047 255° West 224 258 5,500 -900 Descending Kansas City Center
23:24 39.4900 -94.5867 257° West 210 242 4,300 -1,080 Descending Kansas City Center
23:25 39.4667 -94.6408 241° Southwest 185 213 3,400 -900 Descending Kansas City Center